Kattakurgan, Uzbekistan
Current Conditions -  °F | °C
As of 8:00 PM on Saturday 25 Oct 2014 (Local Time) from UTSS Reporting Station
Clear Clear  
Wind Chill: 63°   Ceiling: Unl
Heat Index: 63°   Visibility: 6mi
Dew Point: 48°   Wind: 2mph
Humidity: 59%   Direction: NA
Pressure: 29.97"   Gusts: NA
Location:  39.9°N, 66.25°E
Report Text: UTSS 251500Z VRB01MPS 9999 NSC 17/09 Q1015 R88/CLRD70 NOSIG
Loading
Personal Weather Stations






























Interactive Weather Map
Tropical Storm Tracking
New forecast layout! Learn more

10-Day Weather Forecast

Advertisements
Track Severe Weather on mobile